createdAt,value
2019-05-05T00:02:21.240Z,77.09
2019-05-05T00:04:56.417Z,77.10
2019-05-05T00:07:28.835Z,76.98
2019-05-05T00:09:57.651Z,77.16
2019-05-05T00:13:00.426Z,77.73
2019-05-05T00:15:55.167Z,78.28
2019-05-05T00:18:26.315Z,78.58
2019-05-05T00:20:55.265Z,79.26
2019-05-05T00:23:25.107Z,78.98
2019-05-05T00:25:55.290Z,78.77
2019-05-05T00:28:24.857Z,78.84
2019-05-05T00:30:55.352Z,78.76
2019-05-05T00:33:25.036Z,78.33
2019-05-05T00:35:54.488Z,79.10
2019-05-05T00:38:24.908Z,79.47
2019-05-05T00:40:55.016Z,79.45
2019-05-05T00:43:25.244Z,79.67
2019-05-05T00:45:56.970Z,79.95
2019-05-05T00:48:31.464Z,80.09
2019-05-05T00:51:00.488Z,79.85
2019-05-05T00:53:29.157Z,79.60
2019-05-05T00:55:57.838Z,79.54
2019-05-05T00:58:28.134Z,80.03
2019-05-05T01:01:15.883Z,80.53
2019-05-05T01:03:44.572Z,80.55
2019-05-05T01:06:20.413Z,80.63
2019-05-05T01:08:49.089Z,80.59
2019-05-05T01:11:18.000Z,80.92
2019-05-05T01:13:46.668Z,80.83
2019-05-05T01:16:15.947Z,81.08
2019-05-05T01:18:45.207Z,80.92
2019-05-05T01:21:15.059Z,81.71
2019-05-05T01:23:45.523Z,81.55
2019-05-05T01:26:14.444Z,81.46
2019-05-05T01:28:44.681Z,81.01
2019-05-05T01:31:16.758Z,81.25
2019-05-05T01:34:06.508Z,80.91
2019-05-05T01:36:35.213Z,81.43
2019-05-05T01:39:25.226Z,80.38
2019-05-05T01:41:57.398Z,80.84
2019-05-05T01:44:26.392Z,81.26
2019-05-05T01:46:55.229Z,81.34
2019-05-05T01:49:25.258Z,81.21
2019-05-05T01:51:55.297Z,81.78
2019-05-05T01:54:24.966Z,81.50
2019-05-05T01:56:55.389Z,81.33
2019-05-05T01:59:26.131Z,80.57
2019-05-05T02:01:55.262Z,80.78
2019-05-05T02:04:25.015Z,80.66
2019-05-05T02:06:54.926Z,80.26
2019-05-05T02:09:25.003Z,79.97
2019-05-05T02:11:56.166Z,79.42
2019-05-05T02:14:25.308Z,79.42
2019-05-05T02:16:54.914Z,79.46
2019-05-05T02:19:24.953Z,79.24
2019-05-05T02:21:54.882Z,78.72
2019-05-05T02:24:25.124Z,78.61
2019-05-05T02:26:54.720Z,78.93
2019-05-05T02:29:45.883Z,78.55
2019-05-05T02:32:36.836Z,78.68
2019-05-05T02:35:09.230Z,78.60
2019-05-05T02:37:40.579Z,79.22
2019-05-05T02:40:10.242Z,78.90
2019-05-05T02:42:39.377Z,78.91
2019-05-05T02:45:15.340Z,79.52
2019-05-05T02:48:01.329Z,79.34
2019-05-05T02:50:48.335Z,78.90
2019-05-05T02:53:05.358Z,78.26
2019-05-05T02:55:35.200Z,78.44
2019-05-05T02:58:04.277Z,78.04
2019-05-05T03:00:50.695Z,77.52
2019-05-05T03:03:19.711Z,77.24
2019-05-05T03:05:48.873Z,77.18
2019-05-05T03:08:18.229Z,76.95
2019-05-05T03:10:47.036Z,76.97
2019-05-05T03:13:17.101Z,75.83
2019-05-05T03:15:54.797Z,75.76
2019-05-05T03:18:24.728Z,75.76
2019-05-05T03:21:02.407Z,75.71
2019-05-05T03:23:25.014Z,76.07
2019-05-05T03:25:54.605Z,75.87
2019-05-05T03:28:26.638Z,75.93
2019-05-05T03:30:56.214Z,75.47
2019-05-05T03:33:25.607Z,76.03
2019-05-05T03:35:55.784Z,76.13
2019-05-05T03:38:24.842Z,75.88
2019-05-05T03:40:55.844Z,75.89
2019-05-05T03:43:28.701Z,75.55
2019-05-05T03:46:00.586Z,75.43
2019-05-05T03:48:29.325Z,75.47
2019-05-05T03:50:58.474Z,75.02
2019-05-05T03:53:27.773Z,74.37
2019-05-05T03:55:57.033Z,74.70
2019-05-05T03:58:26.574Z,74.75
2019-05-05T04:02:00.387Z,74.21
2019-05-05T04:04:33.449Z,74.72
2019-05-05T04:07:04.434Z,73.99
2019-05-05T04:09:34.561Z,74.43
2019-05-05T04:12:04.483Z,74.49
2019-05-05T04:14:34.899Z,75.08
2019-05-05T04:17:21.752Z,75.15
2019-05-05T04:19:54.189Z,75.04
2019-05-05T04:22:23.815Z,75.25
2019-05-05T04:24:54.151Z,75.25
2019-05-05T04:27:23.979Z,75.06
2019-05-05T04:29:54.483Z,75.19
2019-05-05T04:32:24.405Z,75.32
2019-05-05T04:34:54.329Z,75.34
2019-05-05T04:37:23.967Z,74.74
2019-05-05T04:39:53.700Z,74.59
2019-05-05T04:42:24.083Z,74.46
2019-05-05T04:44:53.802Z,74.02
2019-05-05T04:47:29.605Z,74.53
2019-05-05T04:50:10.327Z,74.12
2019-05-05T04:52:39.282Z,74.25
2019-05-05T04:55:08.424Z,74.90
2019-05-05T04:57:37.108Z,74.76
2019-05-05T05:00:05.989Z,75.35
2019-05-05T05:02:49.159Z,75.36
2019-05-05T05:05:24.427Z,74.73
2019-05-05T05:07:54.330Z,75.05
2019-05-05T05:10:24.166Z,75.43
2019-05-05T05:12:54.021Z,75.59
2019-05-05T05:15:23.884Z,75.75
2019-05-05T05:17:59.197Z,76.10
2019-05-05T05:20:27.917Z,76.33
2019-05-05T05:22:56.876Z,76.46
2019-05-05T05:25:25.539Z,76.55
2019-05-05T05:27:54.227Z,76.80
2019-05-05T05:30:24.286Z,77.11
2019-05-05T05:32:53.873Z,77.20
2019-05-05T05:35:24.365Z,76.85
2019-05-05T05:37:55.923Z,76.29
2019-05-05T05:40:30.255Z,76.80
2019-05-05T05:43:00.555Z,76.83
2019-05-05T05:45:43.674Z,77.27
2019-05-05T05:48:20.552Z,77.12
2019-05-05T05:50:58.040Z,76.85
2019-05-05T05:53:27.260Z,76.45
2019-05-05T05:55:55.930Z,76.73
2019-05-05T05:58:24.691Z,77.38
2019-05-05T06:00:54.577Z,76.83
2019-05-05T06:03:24.538Z,76.78
2019-05-05T06:05:54.023Z,77.05
2019-05-05T06:08:24.347Z,77.09
2019-05-05T06:10:54.677Z,77.15
2019-05-05T06:13:24.189Z,77.43
2019-05-05T06:15:53.649Z,78.21
2019-05-05T06:18:24.159Z,78.09
2019-05-05T06:20:53.717Z,78.27
2019-05-05T06:23:24.040Z,77.93
2019-05-05T06:25:55.118Z,78.24
2019-05-05T06:28:23.812Z,78.48
2019-05-05T06:30:54.482Z,77.65
2019-05-05T06:33:24.183Z,78.41
2019-05-05T06:35:53.640Z,78.91
2019-05-05T06:38:24.116Z,78.65
2019-05-05T06:41:27.651Z,78.29
2019-05-05T06:44:05.979Z,79.08
2019-05-05T06:46:53.866Z,79.83
2019-05-05T06:49:24.699Z,79.81
2019-05-05T06:51:54.707Z,78.42
2019-05-05T06:54:24.154Z,78.05
2019-05-05T06:56:53.934Z,78.27
2019-05-05T06:59:24.308Z,78.63
2019-05-05T07:01:53.675Z,76.95
2019-05-05T07:04:24.585Z,76.70
2019-05-05T07:06:56.292Z,77.20
2019-05-05T07:09:24.489Z,77.32
2019-05-05T07:11:54.138Z,77.75
2019-05-05T07:14:23.768Z,76.85
2019-05-05T07:16:54.472Z,76.42
2019-05-05T07:19:23.908Z,76.02
2019-05-05T07:21:53.845Z,75.76
2019-05-05T07:24:23.854Z,76.07
2019-05-05T07:26:54.147Z,74.98
2019-05-05T07:29:23.883Z,75.48
2019-05-05T07:31:54.533Z,74.93
2019-05-05T07:34:24.542Z,74.92
2019-05-05T07:36:54.859Z,74.54
2019-05-05T07:39:23.918Z,74.80
2019-05-05T07:41:54.172Z,74.79
2019-05-05T07:44:29.069Z,74.56
2019-05-05T07:46:54.506Z,75.05
2019-05-05T07:49:24.339Z,74.82
2019-05-05T07:51:54.675Z,75.57
2019-05-05T07:54:23.959Z,74.47
2019-05-05T07:56:53.871Z,74.19
2019-05-05T07:59:23.780Z,72.93
2019-05-05T08:01:54.688Z,74.04
2019-05-05T08:04:24.248Z,72.62
2019-05-05T08:06:53.894Z,72.13
2019-05-05T08:09:24.800Z,71.21
2019-05-05T08:11:54.229Z,71.88
2019-05-05T08:14:24.564Z,72.89
2019-05-05T08:17:04.175Z,73.61
2019-05-05T08:19:37.131Z,71.61
2019-05-05T08:22:05.876Z,72.57
2019-05-05T08:25:05.942Z,72.70
2019-05-05T08:27:44.678Z,71.67
2019-05-05T08:30:24.318Z,71.56
2019-05-05T08:32:54.477Z,70.62
2019-05-05T08:35:23.864Z,70.46
2019-05-05T08:37:54.198Z,69.90
2019-05-05T08:40:23.963Z,68.62
2019-05-05T08:42:53.931Z,68.42
2019-05-05T08:45:26.185Z,69.15
2019-05-05T08:47:54.179Z,68.18
2019-05-05T08:50:26.782Z,68.97
2019-05-05T08:52:53.770Z,68.17
2019-05-05T08:55:24.862Z,64.03
2019-05-05T08:57:54.009Z,65.69
2019-05-05T09:00:24.491Z,65.24
2019-05-05T09:02:54.394Z,62.71
2019-05-05T09:05:24.986Z,60.61
2019-05-05T09:07:54.795Z,57.54
2019-05-05T09:10:23.781Z,57.51
2019-05-05T09:12:54.929Z,60.26
2019-05-05T09:15:24.340Z,61.24
2019-05-05T09:17:54.511Z,61.31
2019-05-05T09:20:24.236Z,57.11
2019-05-05T09:22:53.649Z,56.16
2019-05-05T09:25:41.736Z,56.15
2019-05-05T09:28:23.882Z,57.32
2019-05-05T09:30:53.631Z,59.38
2019-05-05T09:33:24.606Z,58.70
2019-05-05T09:35:54.167Z,58.02
2019-05-05T09:38:23.893Z,57.49
2019-05-05T09:40:54.401Z,57.11
2019-05-05T09:43:24.074Z,58.60
2019-05-05T09:45:54.468Z,56.83
2019-05-05T09:48:24.315Z,56.63
2019-05-05T09:50:54.052Z,54.90
2019-05-05T09:53:24.095Z,54.71
2019-05-05T09:55:54.732Z,56.05
2019-05-05T09:58:24.320Z,56.43
2019-05-05T10:00:54.681Z,58.65
2019-05-05T10:03:23.480Z,61.72
2019-05-05T10:05:54.065Z,63.77
2019-05-05T10:08:23.649Z,65.57
2019-05-05T10:10:54.659Z,65.49
2019-05-05T10:13:23.140Z,64.90
2019-05-05T10:15:52.063Z,64.97
2019-05-05T10:18:20.750Z,66.82
2019-05-05T10:20:49.426Z,66.53
2019-05-05T10:23:18.397Z,65.84
2019-05-05T10:25:49.250Z,63.28
2019-05-05T10:28:17.958Z,63.30
2019-05-05T10:30:47.052Z,65.21
2019-05-05T10:33:15.873Z,64.95
2019-05-05T10:35:44.658Z,65.18
2019-05-05T10:38:14.300Z,65.04
2019-05-05T10:40:44.614Z,63.77
2019-05-05T10:43:14.824Z,62.68
2019-05-05T10:45:44.147Z,61.64
2019-05-05T10:48:14.355Z,60.17
2019-05-05T10:50:44.445Z,61.08
2019-05-05T10:53:13.824Z,61.59
2019-05-05T10:55:44.855Z,61.07
2019-05-05T10:58:13.771Z,60.35
2019-05-05T11:00:49.356Z,59.37
2019-05-05T11:03:18.141Z,59.10
2019-05-05T11:05:47.057Z,59.24
2019-05-05T11:08:16.970Z,57.17
2019-05-05T11:10:46.081Z,56.88
2019-05-05T11:13:14.767Z,57.78
2019-05-05T11:15:44.315Z,56.92
2019-05-05T11:18:14.829Z,55.78
2019-05-05T11:20:44.669Z,55.16
2019-05-05T11:23:14.955Z,57.62
2019-05-05T11:25:44.452Z,55.14
2019-05-05T11:28:13.341Z,55.22
2019-05-05T11:30:43.655Z,54.99
2019-05-05T11:33:30.660Z,55.87
2019-05-05T11:36:06.796Z,57.70
2019-05-05T11:38:35.837Z,53.72
2019-05-05T11:41:05.036Z,52.35
2019-05-05T11:43:34.043Z,52.70
2019-05-05T11:46:02.809Z,54.25
2019-05-05T11:48:34.481Z,54.75
2019-05-05T11:51:04.472Z,57.09
2019-05-05T11:53:34.091Z,56.83
2019-05-05T11:56:05.028Z,51.13
2019-05-05T11:58:34.310Z,50.26
2019-05-05T12:01:03.874Z,50.41
2019-05-05T12:03:34.045Z,50.41
2019-05-05T12:06:03.971Z,53.17
2019-05-05T12:08:34.494Z,51.83
2019-05-05T12:11:05.328Z,53.03
2019-05-05T12:13:34.151Z,51.96
2019-05-05T12:16:07.781Z,52.55
2019-05-05T12:18:36.575Z,53.11
2019-05-05T12:21:05.944Z,52.66
2019-05-05T12:23:34.683Z,52.68
2019-05-05T12:26:26.413Z,53.19
2019-05-05T12:28:57.754Z,53.57
2019-05-05T12:31:27.986Z,53.37
2019-05-05T12:33:56.693Z,53.92
2019-05-05T12:36:25.402Z,53.93
2019-05-05T12:38:54.701Z,50.71
2019-05-05T12:41:24.117Z,52.61
2019-05-05T12:43:54.884Z,52.61
2019-05-05T12:46:48.886Z,50.26
2019-05-05T12:49:17.609Z,50.77
2019-05-05T12:51:46.365Z,49.82
2019-05-05T12:54:15.296Z,50.03
2019-05-05T12:56:44.678Z,49.77
2019-05-05T12:59:19.983Z,52.10
2019-05-05T13:01:48.633Z,51.97
2019-05-05T13:04:17.968Z,49.40
2019-05-05T13:06:46.942Z,50.62
2019-05-05T13:09:17.753Z,50.62
2019-05-05T13:11:46.505Z,48.83
2019-05-05T13:14:15.555Z,49.98
2019-05-05T13:16:52.784Z,49.95
2019-05-05T13:19:27.170Z,52.91
2019-05-05T13:22:19.645Z,52.07
2019-05-05T13:25:00.106Z,48.64
2019-05-05T13:27:34.290Z,50.76
2019-05-05T13:30:04.276Z,51.64
2019-05-05T13:32:33.546Z,52.25
2019-05-05T13:35:04.075Z,55.30
2019-05-05T13:37:33.757Z,58.04
2019-05-05T13:40:04.442Z,58.48
2019-05-05T13:42:33.176Z,58.99
2019-05-05T13:45:16.075Z,60.12
2019-05-05T13:47:44.831Z,63.02
2019-05-05T13:50:18.157Z,61.51
2019-05-05T13:52:47.357Z,64.39
2019-05-05T13:55:16.403Z,65.29
2019-05-05T13:57:45.119Z,66.24
2019-05-05T14:00:16.660Z,67.55
2019-05-05T14:02:45.396Z,66.80
2019-05-05T14:05:14.239Z,67.77
2019-05-05T14:07:43.760Z,67.94
2019-05-05T14:10:14.416Z,67.55
2019-05-05T14:12:45.440Z,62.46
2019-05-05T14:15:37.283Z,60.52
2019-05-05T14:18:06.068Z,58.32
2019-05-05T14:20:35.761Z,51.05
2019-05-05T14:23:04.786Z,55.13
2019-05-05T14:25:33.493Z,53.08
2019-05-05T14:28:03.749Z,53.08
2019-05-05T14:30:54.043Z,54.62
2019-05-05T14:33:26.137Z,54.79
2019-05-05T14:36:01.106Z,54.56
2019-05-05T14:38:39.102Z,54.23
2019-05-05T14:41:08.261Z,51.55
2019-05-05T14:43:39.565Z,51.39
2019-05-05T14:46:08.548Z,49.40
2019-05-05T14:48:37.324Z,49.21
2019-05-05T14:51:07.325Z,49.03
2019-05-05T14:53:36.298Z,48.88
2019-05-05T14:56:04.982Z,50.32
2019-05-05T14:58:33.975Z,51.09
2019-05-05T15:01:05.104Z,52.42
2019-05-05T15:03:33.799Z,51.84
2019-05-05T15:06:09.902Z,53.42
2019-05-05T15:08:44.773Z,55.63
2019-05-05T15:11:21.253Z,54.30
2019-05-05T15:13:49.909Z,54.30
2019-05-05T15:16:18.933Z,54.06
2019-05-05T15:18:47.605Z,55.18
2019-05-05T15:21:16.610Z,54.14
2019-05-05T15:23:45.393Z,53.31
2019-05-05T15:26:14.040Z,52.74
2019-05-05T15:28:44.052Z,52.99
2019-05-05T15:31:13.117Z,52.23
2019-05-05T15:33:44.012Z,52.13
2019-05-05T15:36:13.838Z,50.15
2019-05-05T15:38:43.788Z,47.01
2019-05-05T15:41:14.545Z,47.20
2019-05-05T15:43:44.151Z,44.68
2019-05-05T15:46:12.867Z,45.15
2019-05-05T15:48:43.811Z,44.09
2019-05-05T15:51:14.379Z,42.97
2019-05-05T15:53:42.768Z,42.80
2019-05-05T15:56:11.541Z,43.90
2019-05-05T15:58:40.222Z,43.16
2019-05-05T16:01:09.199Z,42.73
2019-05-05T16:03:37.925Z,42.69
2019-05-05T16:06:06.675Z,42.07
2019-05-05T16:08:36.516Z,41.07
2019-05-05T16:11:05.321Z,41.45
2019-05-05T16:13:35.373Z,42.20
2019-05-05T16:16:38.529Z,41.85
2019-05-05T16:19:29.769Z,42.38
2019-05-05T16:22:14.558Z,41.98
2019-05-05T16:24:44.608Z,41.69
2019-05-05T16:27:21.797Z,41.99
2019-05-05T16:29:44.284Z,41.69
2019-05-05T16:32:21.686Z,43.58
2019-05-05T16:34:43.356Z,44.01
2019-05-05T16:37:14.325Z,44.97
2019-05-05T16:39:43.961Z,45.76
2019-05-05T16:42:13.595Z,46.34
2019-05-05T16:44:43.450Z,46.88
2019-05-05T16:47:13.582Z,47.41
2019-05-05T16:49:44.513Z,47.87
2019-05-05T16:52:20.142Z,49.98
2019-05-05T16:55:14.297Z,49.98
2019-05-05T16:57:43.711Z,50.49
2019-05-05T17:00:16.255Z,50.49
2019-05-05T17:02:45.191Z,50.55
2019-05-05T17:05:14.443Z,50.55
2019-05-05T17:07:43.218Z,50.73
2019-05-05T17:10:13.838Z,49.98
2019-05-05T17:12:44.280Z,50.16
2019-05-05T17:15:35.955Z,49.17
2019-05-05T17:18:35.972Z,49.94
2019-05-05T17:21:14.242Z,49.49
2019-05-05T17:23:43.438Z,50.13
2019-05-05T17:26:14.137Z,49.78
2019-05-05T17:28:44.341Z,50.39
2019-05-05T17:31:13.436Z,50.70
2019-05-05T17:33:44.067Z,50.87
2019-05-05T17:36:13.986Z,51.24
2019-05-05T17:38:43.740Z,51.58
2019-05-05T17:41:30.169Z,51.82
2019-05-05T17:44:14.110Z,52.35
2019-05-05T17:46:55.974Z,52.90
2019-05-05T17:49:54.211Z,53.04
2019-05-05T17:52:44.992Z,53.84
2019-05-05T17:55:27.662Z,54.31
2019-05-05T17:58:01.694Z,54.68
2019-05-05T18:00:34.108Z,55.02
2019-05-05T18:03:04.375Z,55.10
2019-05-05T18:05:50.483Z,55.53
2019-05-05T18:08:36.842Z,55.70
2019-05-05T18:11:09.459Z,55.74
2019-05-05T18:13:43.442Z,55.79
2019-05-05T18:16:14.040Z,55.93
2019-05-05T18:18:44.404Z,56.27
2019-05-05T18:21:14.213Z,56.32
2019-05-05T18:23:43.832Z,56.28
2019-05-05T18:26:13.659Z,56.43
2019-05-05T18:28:44.757Z,56.42
2019-05-05T18:31:14.208Z,56.27
2019-05-05T18:33:43.295Z,55.94
2019-05-05T18:36:14.027Z,56.01
2019-05-05T18:38:44.503Z,55.83
2019-05-05T18:41:20.419Z,56.14
2019-05-05T18:44:05.029Z,56.10
2019-05-05T18:46:33.975Z,56.24
2019-05-05T18:49:04.385Z,56.95
2019-05-05T18:51:34.729Z,56.93
2019-05-05T18:54:04.265Z,57.00
2019-05-05T18:56:34.786Z,56.90
2019-05-05T18:59:06.557Z,57.02
2019-05-05T19:01:41.602Z,57.11
2019-05-05T19:04:28.065Z,56.94
2019-05-05T19:07:23.844Z,56.26
2019-05-05T19:09:54.948Z,56.35
2019-05-05T19:12:24.352Z,56.70
2019-05-05T19:14:54.992Z,56.72
2019-05-05T19:17:23.899Z,57.03
2019-05-05T19:19:55.843Z,56.80
2019-05-05T19:22:24.578Z,56.72
2019-05-05T19:24:54.857Z,56.93
2019-05-05T19:27:24.125Z,57.32
2019-05-05T19:29:53.621Z,56.83
2019-05-05T19:32:22.909Z,56.50
2019-05-05T19:34:51.609Z,56.60
2019-05-05T19:37:20.551Z,56.15
2019-05-05T19:39:49.579Z,56.13
2019-05-05T19:42:18.550Z,56.10
2019-05-05T19:44:47.219Z,56.12
2019-05-05T19:47:20.456Z,56.58
2019-05-05T19:49:55.582Z,56.60
2019-05-05T19:52:24.348Z,56.86
2019-05-05T19:54:54.684Z,56.92
2019-05-05T19:57:23.790Z,56.75
2019-05-05T19:59:54.341Z,57.30
2019-05-05T20:02:23.658Z,57.68
2019-05-05T20:04:53.676Z,57.55
2019-05-05T20:07:24.663Z,57.39
2019-05-05T20:09:54.350Z,57.77
2019-05-05T20:12:23.543Z,58.09
2019-05-05T20:14:54.249Z,58.43
2019-05-05T20:17:30.854Z,58.71
2019-05-05T20:19:59.536Z,59.04
2019-05-05T20:22:28.224Z,59.29
2019-05-05T20:24:56.954Z,59.89
2019-05-05T20:27:26.119Z,60.19
2019-05-05T20:29:54.817Z,60.00
2019-05-05T20:32:42.604Z,60.08
2019-05-05T20:35:24.786Z,60.43
2019-05-05T20:37:57.902Z,60.78
2019-05-05T20:40:29.915Z,60.33
2019-05-05T20:42:58.035Z,60.67
2019-05-05T20:45:29.335Z,60.92
2019-05-05T20:47:58.272Z,61.09
2019-05-05T20:50:27.338Z,60.85
2019-05-05T20:52:56.366Z,60.82
2019-05-05T20:55:25.928Z,61.00
2019-05-05T20:57:54.777Z,60.56
2019-05-05T21:00:24.739Z,60.49
2019-05-05T21:02:53.939Z,60.58
2019-05-05T21:05:24.135Z,60.09
2019-05-05T21:07:53.044Z,60.62
2019-05-05T21:10:23.991Z,60.58
2019-05-05T21:12:54.388Z,60.75
2019-05-05T21:15:30.334Z,60.34
2019-05-05T21:17:59.056Z,60.40
2019-05-05T21:20:27.784Z,60.56
2019-05-05T21:23:18.665Z,61.33
2019-05-05T21:26:00.479Z,61.62
2019-05-05T21:28:29.229Z,60.54
2019-05-05T21:30:57.914Z,60.77
2019-05-05T21:33:26.610Z,61.23
2019-05-05T21:35:55.353Z,60.27
2019-05-05T21:38:24.381Z,60.31
2019-05-05T21:40:53.370Z,60.52
2019-05-05T21:43:22.066Z,60.84
2019-05-05T21:45:50.785Z,60.92
2019-05-05T21:48:19.721Z,60.66
2019-05-05T21:50:57.014Z,60.65
2019-05-05T21:53:53.950Z,60.82
2019-05-05T21:56:45.004Z,61.13
2019-05-05T21:59:14.223Z,61.51
2019-05-05T22:01:49.211Z,62.11
2019-05-05T22:04:15.099Z,62.03
2019-05-05T22:06:44.117Z,62.19
2019-05-05T22:09:14.669Z,62.04
2019-05-05T22:11:43.596Z,62.11
2019-05-05T22:14:13.988Z,62.78
2019-05-05T22:16:44.581Z,63.18
2019-05-05T22:19:14.599Z,62.98
2019-05-05T22:21:51.334Z,63.29
2019-05-05T22:24:20.814Z,63.13
2019-05-05T22:26:49.663Z,62.95
2019-05-05T22:29:18.352Z,63.65
2019-05-05T22:31:47.239Z,63.98
2019-05-05T22:34:16.001Z,63.97
2019-05-05T22:36:45.037Z,64.58
2019-05-05T22:39:16.520Z,64.27
2019-05-05T22:41:44.676Z,64.09
2019-05-05T22:44:14.062Z,64.20
2019-05-05T22:46:43.267Z,64.71
2019-05-05T22:49:11.969Z,64.86
2019-05-05T22:51:40.651Z,65.39
2019-05-05T22:54:09.760Z,65.27
2019-05-05T22:56:38.476Z,65.14
2019-05-05T22:59:07.507Z,64.85
2019-05-05T23:01:36.360Z,64.87
2019-05-05T23:04:24.011Z,65.16
2019-05-05T23:06:56.557Z,65.32
2019-05-05T23:09:25.307Z,65.42
2019-05-05T23:11:54.584Z,65.57
2019-05-05T23:14:29.184Z,65.64
2019-05-05T23:17:21.673Z,65.63
2019-05-05T23:19:56.982Z,66.20
2019-05-05T23:22:35.316Z,66.25
2019-05-05T23:25:10.771Z,66.49
2019-05-05T23:27:49.568Z,66.57
2019-05-05T23:30:41.858Z,66.88
2019-05-05T23:33:10.001Z,66.81
2019-05-05T23:35:38.759Z,66.99
2019-05-05T23:38:07.735Z,66.99
2019-05-05T23:40:36.934Z,67.00
2019-05-05T23:43:05.887Z,66.94
2019-05-05T23:45:34.701Z,66.90
2019-05-05T23:48:03.803Z,67.67
2019-05-05T23:50:33.805Z,67.81
2019-05-05T23:53:02.810Z,68.14
2019-05-05T23:55:31.722Z,68.06
2019-05-05T23:58:00.392Z,68.33
